GQPZ

Tazadit Airport

Zouérate, Mauritania
METAR GQPZ 181800Z 36008KT CAVOK 36/15 Q1010
Observed Flight Rules
Aug-18 @ 18:00 UTC (6 hours ago) Visual Flight Rules
Wind Visibility Clouds
360° at 8 knots 10,000+ meters
  • Clear skies
Temperatures Readings
Current 36°C / 97°F
Dewpoint 15°C / 59°F
Humidity 28%
Altimeter 29.82" Hg
Pressure 1010 hPa
Elevation 344
METAR GQPZ 181800Z 36008KT CAVOK 36/15 Q1010
Observed Flight Rules
Aug-18 @ 18:00 UTC
(6 hours ago)
VFR
Wind Visibility
360° at 8 knots 10,000+ meters
Clouds
  • Clear skies
Temperature Dewpoint
36°C / 97°F 15°C / 59°F
Humidity Altimeter Pressure
28% 29.82" Hg 1010 hPa